sensor_id;sensor_type;location;lat;lon;timestamp;P1;durP1;ratioP1;P2;durP2;ratioP2
25988;SDS011;13778;48.236;9.894;2022-08-03T00:02:13;3.40;;;3.20;;
25988;SDS011;13778;48.236;9.894;2022-08-03T00:05:03;2.95;;;2.70;;
25988;SDS011;13778;48.236;9.894;2022-08-03T00:07:56;4.28;;;2.88;;
25988;SDS011;13778;48.236;9.894;2022-08-03T00:10:48;3.42;;;2.75;;
25988;SDS011;13778;48.236;9.894;2022-08-03T00:13:38;5.75;;;3.50;;
25988;SDS011;13778;48.236;9.894;2022-08-03T00:16:29;3.33;;;2.78;;
25988;SDS011;13778;48.236;9.894;2022-08-03T00:19:19;5.88;;;3.03;;
25988;SDS011;13778;48.236;9.894;2022-08-03T00:22:10;4.68;;;2.92;;
25988;SDS011;13778;48.236;9.894;2022-08-03T00:25:00;3.47;;;3.17;;
25988;SDS011;13778;48.236;9.894;2022-08-03T00:27:52;3.22;;;2.90;;
25988;SDS011;13778;48.236;9.894;2022-08-03T00:33:32;3.45;;;2.92;;
25988;SDS011;13778;48.236;9.894;2022-08-03T00:36:23;4.45;;;3.05;;
25988;SDS011;13778;48.236;9.894;2022-08-03T00:39:13;3.30;;;3.00;;
25988;SDS011;13778;48.236;9.894;2022-08-03T00:42:04;4.03;;;2.88;;
25988;SDS011;13778;48.236;9.894;2022-08-03T00:44:56;4.70;;;2.65;;
25988;SDS011;13778;48.236;9.894;2022-08-03T00:47:46;3.33;;;2.65;;
25988;SDS011;13778;48.236;9.894;2022-08-03T00:50:38;3.42;;;3.03;;
25988;SDS011;13778;48.236;9.894;2022-08-03T00:53:28;4.57;;;3.08;;
25988;SDS011;13778;48.236;9.894;2022-08-03T00:56:18;2.90;;;2.70;;
25988;SDS011;13778;48.236;9.894;2022-08-03T00:59:09;5.35;;;2.97;;
25988;SDS011;13778;48.236;9.894;2022-08-03T01:02:01;5.10;;;2.58;;
25988;SDS011;13778;48.236;9.894;2022-08-03T01:04:51;2.45;;;2.25;;
25988;SDS011;13778;48.236;9.894;2022-08-03T01:07:45;3.55;;;2.95;;
25988;SDS011;13778;48.236;9.894;2022-08-03T01:10:40;3.10;;;2.80;;
25988;SDS011;13778;48.236;9.894;2022-08-03T01:13:36;2.75;;;2.55;;
25988;SDS011;13778;48.236;9.894;2022-08-03T01:16:31;3.08;;;2.88;;
25988;SDS011;13778;48.236;9.894;2022-08-03T01:19:29;3.50;;;3.00;;
25988;SDS011;13778;48.236;9.894;2022-08-03T01:22:44;3.08;;;2.78;;
25988;SDS011;13778;48.236;9.894;2022-08-03T01:25:47;3.33;;;2.70;;
25988;SDS011;13778;48.236;9.894;2022-08-03T01:28:50;3.28;;;2.72;;
25988;SDS011;13778;48.236;9.894;2022-08-03T01:31:48;4.07;;;2.67;;
25988;SDS011;13778;48.236;9.894;2022-08-03T01:34:40;3.00;;;2.60;;
25988;SDS011;13778;48.236;9.894;2022-08-03T01:37:34;3.17;;;2.90;;
25988;SDS011;13778;48.236;9.894;2022-08-03T01:40:26;3.15;;;2.47;;
25988;SDS011;13778;48.236;9.894;2022-08-03T01:43:17;3.33;;;2.73;;
25988;SDS011;13778;48.236;9.894;2022-08-03T01:46:08;3.42;;;2.80;;
25988;SDS011;13778;48.236;9.894;2022-08-03T01:49:00;3.67;;;3.23;;
25988;SDS011;13778;48.236;9.894;2022-08-03T01:51:52;5.45;;;2.67;;
25988;SDS011;13778;48.236;9.894;2022-08-03T01:54:43;3.10;;;2.90;;
25988;SDS011;13778;48.236;9.894;2022-08-03T01:57:34;4.88;;;3.03;;
25988;SDS011;13778;48.236;9.894;2022-08-03T02:00:26;5.32;;;3.50;;
25988;SDS011;13778;48.236;9.894;2022-08-03T02:03:16;4.63;;;2.90;;
25988;SDS011;13778;48.236;9.894;2022-08-03T02:06:09;4.25;;;3.10;;
25988;SDS011;13778;48.236;9.894;2022-08-03T02:09:00;3.20;;;2.90;;
25988;SDS011;13778;48.236;9.894;2022-08-03T02:11:51;3.20;;;2.90;;
25988;SDS011;13778;48.236;9.894;2022-08-03T02:14:42;3.05;;;2.60;;
25988;SDS011;13778;48.236;9.894;2022-08-03T02:17:33;3.00;;;2.70;;
25988;SDS011;13778;48.236;9.894;2022-08-03T02:20:24;3.65;;;2.92;;
25988;SDS011;13778;48.236;9.894;2022-08-03T02:23:15;3.08;;;2.85;;
25988;SDS011;13778;48.236;9.894;2022-08-03T02:28:58;4.35;;;3.15;;
25988;SDS011;13778;48.236;9.894;2022-08-03T02:31:49;6.03;;;3.30;;
25988;SDS011;13778;48.236;9.894;2022-08-03T02:34:41;3.53;;;2.92;;
25988;SDS011;13778;48.236;9.894;2022-08-03T02:37:35;5.80;;;3.60;;
25988;SDS011;13778;48.236;9.894;2022-08-03T02:40:28;5.75;;;3.55;;
25988;SDS011;13778;48.236;9.894;2022-08-03T02:43:19;5.47;;;3.40;;
25988;SDS011;13778;48.236;9.894;2022-08-03T02:46:10;3.63;;;3.08;;
25988;SDS011;13778;48.236;9.894;2022-08-03T02:49:02;3.55;;;3.25;;
25988;SDS011;13778;48.236;9.894;2022-08-03T02:51:54;5.77;;;3.13;;
25988;SDS011;13778;48.236;9.894;2022-08-03T02:54:44;4.37;;;3.27;;
25988;SDS011;13778;48.236;9.894;2022-08-03T02:57:36;5.13;;;2.80;;
25988;SDS011;13778;48.236;9.894;2022-08-03T03:00:28;4.75;;;3.05;;
25988;SDS011;13778;48.236;9.894;2022-08-03T03:03:19;4.23;;;3.10;;
25988;SDS011;13778;48.236;9.894;2022-08-03T03:06:10;5.10;;;2.78;;
25988;SDS011;13778;48.236;9.894;2022-08-03T03:11:51;3.13;;;2.83;;
25988;SDS011;13778;48.236;9.894;2022-08-03T03:14:44;4.23;;;2.70;;
25988;SDS011;13778;48.236;9.894;2022-08-03T03:17:35;3.35;;;2.67;;
25988;SDS011;13778;48.236;9.894;2022-08-03T03:20:26;6.10;;;2.90;;
25988;SDS011;13778;48.236;9.894;2022-08-03T03:23:18;2.90;;;2.70;;
25988;SDS011;13778;48.236;9.894;2022-08-03T03:26:09;3.55;;;2.80;;
25988;SDS011;13778;48.236;9.894;2022-08-03T03:29:02;5.22;;;2.75;;
25988;SDS011;13778;48.236;9.894;2022-08-03T03:31:54;3.28;;;2.97;;
25988;SDS011;13778;48.236;9.894;2022-08-03T03:34:45;3.40;;;3.10;;
25988;SDS011;13778;48.236;9.894;2022-08-03T03:37:36;5.18;;;2.28;;
25988;SDS011;13778;48.236;9.894;2022-08-03T03:40:27;3.35;;;2.60;;
25988;SDS011;13778;48.236;9.894;2022-08-03T03:43:17;3.75;;;2.90;;
25988;SDS011;13778;48.236;9.894;2022-08-03T03:46:10;5.22;;;2.88;;
25988;SDS011;13778;48.236;9.894;2022-08-03T03:49:02;7.32;;;3.10;;
25988;SDS011;13778;48.236;9.894;2022-08-03T03:51:54;3.85;;;2.80;;
25988;SDS011;13778;48.236;9.894;2022-08-03T03:54:44;5.07;;;2.97;;
25988;SDS011;13778;48.236;9.894;2022-08-03T03:57:35;3.25;;;2.58;;
25988;SDS011;13778;48.236;9.894;2022-08-03T04:00:25;4.57;;;2.78;;
25988;SDS011;13778;48.236;9.894;2022-08-03T04:03:16;5.55;;;3.08;;
25988;SDS011;13778;48.236;9.894;2022-08-03T04:06:08;2.85;;;2.63;;
25988;SDS011;13778;48.236;9.894;2022-08-03T04:09:16;3.30;;;2.35;;
25988;SDS011;13778;48.236;9.894;2022-08-03T04:12:25;4.78;;;3.05;;
25988;SDS011;13778;48.236;9.894;2022-08-03T04:15:16;2.78;;;2.47;;
25988;SDS011;13778;48.236;9.894;2022-08-03T04:18:08;2.55;;;2.35;;
25988;SDS011;13778;48.236;9.894;2022-08-03T04:21:01;3.42;;;2.20;;
25988;SDS011;13778;48.236;9.894;2022-08-03T04:26:43;3.40;;;2.67;;
25988;SDS011;13778;48.236;9.894;2022-08-03T04:29:34;3.83;;;3.05;;
25988;SDS011;13778;48.236;9.894;2022-08-03T04:32:26;4.90;;;2.30;;
25988;SDS011;13778;48.236;9.894;2022-08-03T04:35:17;2.95;;;2.72;;
25988;SDS011;13778;48.236;9.894;2022-08-03T04:38:09;3.17;;;2.80;;
25988;SDS011;13778;48.236;9.894;2022-08-03T04:41:01;5.05;;;2.78;;
25988;SDS011;13778;48.236;9.894;2022-08-03T04:43:54;3.17;;;2.40;;
25988;SDS011;13778;48.236;9.894;2022-08-03T04:46:45;2.83;;;2.55;;
25988;SDS011;13778;48.236;9.894;2022-08-03T04:49:36;3.88;;;2.50;;
25988;SDS011;13778;48.236;9.894;2022-08-03T04:52:26;4.90;;;2.92;;
25988;SDS011;13778;48.236;9.894;2022-08-03T04:55:24;3.53;;;2.72;;
25988;SDS011;13778;48.236;9.894;2022-08-03T04:58:14;3.13;;;2.83;;
25988;SDS011;13778;48.236;9.894;2022-08-03T05:01:06;6.57;;;2.60;;
25988;SDS011;13778;48.236;9.894;2022-08-03T05:06:46;3.75;;;2.60;;
25988;SDS011;13778;48.236;9.894;2022-08-03T05:09:37;3.15;;;2.40;;
25988;SDS011;13778;48.236;9.894;2022-08-03T05:12:27;6.40;;;2.60;;
25988;SDS011;13778;48.236;9.894;2022-08-03T05:15:18;5.55;;;2.97;;
25988;SDS011;13778;48.236;9.894;2022-08-03T05:18:10;3.15;;;2.85;;
25988;SDS011;13778;48.236;9.894;2022-08-03T05:21:00;3.40;;;2.72;;
25988;SDS011;13778;48.236;9.894;2022-08-03T05:23:51;4.70;;;3.33;;
25988;SDS011;13778;48.236;9.894;2022-08-03T05:26:42;3.22;;;2.92;;
25988;SDS011;13778;48.236;9.894;2022-08-03T05:29:32;4.65;;;2.80;;
25988;SDS011;13778;48.236;9.894;2022-08-03T05:32:23;3.40;;;3.10;;
25988;SDS011;13778;48.236;9.894;2022-08-03T05:35:15;4.07;;;3.17;;
25988;SDS011;13778;48.236;9.894;2022-08-03T05:38:05;4.60;;;3.10;;
25988;SDS011;13778;48.236;9.894;2022-08-03T05:40:56;4.10;;;3.55;;
25988;SDS011;13778;48.236;9.894;2022-08-03T05:43:46;4.55;;;3.67;;
25988;SDS011;13778;48.236;9.894;2022-08-03T05:46:37;3.80;;;3.40;;
25988;SDS011;13778;48.236;9.894;2022-08-03T05:49:27;5.45;;;3.85;;
25988;SDS011;13778;48.236;9.894;2022-08-03T05:52:19;6.30;;;4.22;;
25988;SDS011;13778;48.236;9.894;2022-08-03T05:58:00;4.53;;;4.07;;
25988;SDS011;13778;48.236;9.894;2022-08-03T06:00:52;6.03;;;3.80;;
25988;SDS011;13778;48.236;9.894;2022-08-03T06:03:42;5.22;;;4.63;;
25988;SDS011;13778;48.236;9.894;2022-08-03T06:06:33;9.48;;;4.72;;
25988;SDS011;13778;48.236;9.894;2022-08-03T06:09:25;4.53;;;4.05;;
25988;SDS011;13778;48.236;9.894;2022-08-03T06:15:06;5.32;;;4.28;;
25988;SDS011;13778;48.236;9.894;2022-08-03T06:17:56;4.78;;;4.07;;
25988;SDS011;13778;48.236;9.894;2022-08-03T06:20:46;4.80;;;4.40;;
25988;SDS011;13778;48.236;9.894;2022-08-03T06:23:37;4.20;;;3.80;;
25988;SDS011;13778;48.236;9.894;2022-08-03T06:26:29;5.00;;;4.50;;
25988;SDS011;13778;48.236;9.894;2022-08-03T06:29:19;5.97;;;4.20;;
25988;SDS011;13778;48.236;9.894;2022-08-03T06:32:10;4.03;;;3.72;;
25988;SDS011;13778;48.236;9.894;2022-08-03T06:35:00;4.88;;;4.32;;
25988;SDS011;13778;48.236;9.894;2022-08-03T06:37:51;6.07;;;4.53;;
25988;SDS011;13778;48.236;9.894;2022-08-03T06:40:41;5.47;;;4.07;;
25988;SDS011;13778;48.236;9.894;2022-08-03T06:43:33;4.28;;;3.88;;
25988;SDS011;13778;48.236;9.894;2022-08-03T06:46:25;4.50;;;4.03;;
25988;SDS011;13778;48.236;9.894;2022-08-03T06:49:16;4.78;;;3.83;;
25988;SDS011;13778;48.236;9.894;2022-08-03T06:52:06;5.70;;;4.50;;
25988;SDS011;13778;48.236;9.894;2022-08-03T06:54:57;4.90;;;4.50;;
25988;SDS011;13778;48.236;9.894;2022-08-03T06:57:47;5.13;;;4.15;;
25988;SDS011;13778;48.236;9.894;2022-08-03T07:00:39;5.10;;;4.25;;
25988;SDS011;13778;48.236;9.894;2022-08-03T07:06:19;3.60;;;3.30;;
25988;SDS011;13778;48.236;9.894;2022-08-03T07:09:10;3.83;;;3.53;;
25988;SDS011;13778;48.236;9.894;2022-08-03T07:12:00;4.00;;;3.40;;
25988;SDS011;13778;48.236;9.894;2022-08-03T07:14:52;8.30;;;3.60;;
25988;SDS011;13778;48.236;9.894;2022-08-03T07:17:44;4.00;;;3.60;;
25988;SDS011;13778;48.236;9.894;2022-08-03T07:20:35;4.97;;;3.80;;
25988;SDS011;13778;48.236;9.894;2022-08-03T07:23:25;3.28;;;2.97;;
25988;SDS011;13778;48.236;9.894;2022-08-03T07:26:15;3.22;;;2.92;;
25988;SDS011;13778;48.236;9.894;2022-08-03T07:29:06;2.90;;;2.65;;
25988;SDS011;13778;48.236;9.894;2022-08-03T07:31:57;4.43;;;3.80;;
25988;SDS011;13778;48.236;9.894;2022-08-03T07:34:48;3.97;;;2.92;;
25988;SDS011;13778;48.236;9.894;2022-08-03T07:37:39;8.63;;;2.80;;
25988;SDS011;13778;48.236;9.894;2022-08-03T07:40:29;2.80;;;2.35;;
25988;SDS011;13778;48.236;9.894;2022-08-03T07:43:20;3.10;;;2.53;;
25988;SDS011;13778;48.236;9.894;2022-08-03T07:46:12;4.78;;;2.72;;
25988;SDS011;13778;48.236;9.894;2022-08-03T07:49:02;2.40;;;2.20;;
25988;SDS011;13778;48.236;9.894;2022-08-03T07:51:54;4.85;;;2.50;;
25988;SDS011;13778;48.236;9.894;2022-08-03T07:54:58;4.25;;;2.17;;
25988;SDS011;13778;48.236;9.894;2022-08-03T07:57:58;2.10;;;2.00;;
25988;SDS011;13778;48.236;9.894;2022-08-03T08:00:48;2.30;;;2.10;;
25988;SDS011;13778;48.236;9.894;2022-08-03T08:03:41;2.33;;;2.10;;
25988;SDS011;13778;48.236;9.894;2022-08-03T08:06:31;2.13;;;1.70;;
25988;SDS011;13778;48.236;9.894;2022-08-03T08:09:23;2.38;;;1.75;;
25988;SDS011;13778;48.236;9.894;2022-08-03T08:12:13;2.13;;;1.92;;
25988;SDS011;13778;48.236;9.894;2022-08-03T08:15:04;2.88;;;1.83;;
25988;SDS011;13778;48.236;9.894;2022-08-03T08:17:56;2.33;;;1.40;;
25988;SDS011;13778;48.236;9.894;2022-08-03T08:20:46;3.15;;;1.98;;
25988;SDS011;13778;48.236;9.894;2022-08-03T08:23:37;2.40;;;1.73;;
25988;SDS011;13778;48.236;9.894;2022-08-03T08:26:29;2.63;;;1.65;;
25988;SDS011;13778;48.236;9.894;2022-08-03T08:29:19;2.22;;;1.52;;
25988;SDS011;13778;48.236;9.894;2022-08-03T08:32:11;2.47;;;1.80;;
25988;SDS011;13778;48.236;9.894;2022-08-03T08:35:04;2.00;;;1.80;;
25988;SDS011;13778;48.236;9.894;2022-08-03T08:37:54;1.70;;;1.60;;
25988;SDS011;13778;48.236;9.894;2022-08-03T08:40:45;1.40;;;1.25;;
25988;SDS011;13778;48.236;9.894;2022-08-03T08:43:37;1.75;;;1.33;;
25988;SDS011;13778;48.236;9.894;2022-08-03T08:46:28;1.98;;;1.58;;
25988;SDS011;13778;48.236;9.894;2022-08-03T08:49:21;2.67;;;1.30;;
25988;SDS011;13778;48.236;9.894;2022-08-03T08:52:12;1.40;;;1.30;;
25988;SDS011;13778;48.236;9.894;2022-08-03T08:55:04;1.60;;;1.43;;
25988;SDS011;13778;48.236;9.894;2022-08-03T08:57:56;1.27;;;1.17;;
25988;SDS011;13778;48.236;9.894;2022-08-03T09:00:48;1.92;;;1.30;;
25988;SDS011;13778;48.236;9.894;2022-08-03T09:03:40;2.55;;;1.67;;
25988;SDS011;13778;48.236;9.894;2022-08-03T09:06:30;1.52;;;1.42;;
25988;SDS011;13778;48.236;9.894;2022-08-03T09:09:21;2.28;;;1.40;;
25988;SDS011;13778;48.236;9.894;2022-08-03T09:12:11;1.50;;;1.38;;
25988;SDS011;13778;48.236;9.894;2022-08-03T09:15:14;1.75;;;1.33;;
25988;SDS011;13778;48.236;9.894;2022-08-03T09:18:06;1.98;;;1.65;;
25988;SDS011;13778;48.236;9.894;2022-08-03T09:21:00;1.83;;;1.50;;
25988;SDS011;13778;48.236;9.894;2022-08-03T09:24:02;1.30;;;1.20;;
25988;SDS011;13778;48.236;9.894;2022-08-03T09:29:46;1.30;;;1.20;;
25988;SDS011;13778;48.236;9.894;2022-08-03T09:32:36;1.55;;;1.45;;
25988;SDS011;13778;48.236;9.894;2022-08-03T09:35:28;0.90;;;0.90;;
25988;SDS011;13778;48.236;9.894;2022-08-03T09:38:20;1.27;;;1.17;;
25988;SDS011;13778;48.236;9.894;2022-08-03T09:41:16;2.97;;;1.40;;
25988;SDS011;13778;48.236;9.894;2022-08-03T09:44:07;1.40;;;1.30;;
25988;SDS011;13778;48.236;9.894;2022-08-03T09:46:57;2.65;;;1.30;;
25988;SDS011;13778;48.236;9.894;2022-08-03T09:49:55;2.50;;;1.83;;
25988;SDS011;13778;48.236;9.894;2022-08-03T09:52:47;1.40;;;1.30;;
25988;SDS011;13778;48.236;9.894;2022-08-03T09:55:42;1.35;;;1.20;;
25988;SDS011;13778;48.236;9.894;2022-08-03T09:58:43;2.42;;;1.38;;
25988;SDS011;13778;48.236;9.894;2022-08-03T10:01:34;1.65;;;1.40;;
25988;SDS011;13778;48.236;9.894;2022-08-03T10:04:25;1.20;;;1.10;;
25988;SDS011;13778;48.236;9.894;2022-08-03T10:07:15;1.03;;;1.03;;
25988;SDS011;13778;48.236;9.894;2022-08-03T10:10:08;4.20;;;1.40;;
25988;SDS011;13778;48.236;9.894;2022-08-03T10:12:58;1.42;;;1.33;;
25988;SDS011;13778;48.236;9.894;2022-08-03T10:15:49;1.33;;;1.23;;
25988;SDS011;13778;48.236;9.894;2022-08-03T10:18:39;1.47;;;1.37;;
25988;SDS011;13778;48.236;9.894;2022-08-03T10:21:31;1.70;;;1.20;;
25988;SDS011;13778;48.236;9.894;2022-08-03T10:24:23;3.00;;;1.30;;
25988;SDS011;13778;48.236;9.894;2022-08-03T10:27:15;2.47;;;1.67;;
25988;SDS011;13778;48.236;9.894;2022-08-03T10:30:06;1.95;;;1.50;;
25988;SDS011;13778;48.236;9.894;2022-08-03T10:33:00;2.50;;;1.30;;
25988;SDS011;13778;48.236;9.894;2022-08-03T10:35:52;2.83;;;1.27;;
25988;SDS011;13778;48.236;9.894;2022-08-03T10:38:43;1.70;;;1.60;;
25988;SDS011;13778;48.236;9.894;2022-08-03T10:41:40;2.03;;;1.27;;
25988;SDS011;13778;48.236;9.894;2022-08-03T10:44:38;1.45;;;1.20;;
25988;SDS011;13778;48.236;9.894;2022-08-03T10:47:29;1.20;;;1.10;;
25988;SDS011;13778;48.236;9.894;2022-08-03T10:50:21;1.48;;;1.23;;
25988;SDS011;13778;48.236;9.894;2022-08-03T10:53:12;2.13;;;1.23;;
25988;SDS011;13778;48.236;9.894;2022-08-03T10:56:03;1.30;;;1.20;;
25988;SDS011;13778;48.236;9.894;2022-08-03T10:59:10;1.38;;;1.27;;
25988;SDS011;13778;48.236;9.894;2022-08-03T11:02:02;1.50;;;1.40;;
25988;SDS011;13778;48.236;9.894;2022-08-03T11:05:05;2.20;;;1.15;;
25988;SDS011;13778;48.236;9.894;2022-08-03T11:11:24;1.15;;;1.05;;
25988;SDS011;13778;48.236;9.894;2022-08-03T11:14:17;1.00;;;0.90;;
25988;SDS011;13778;48.236;9.894;2022-08-03T11:17:09;2.03;;;1.33;;
25988;SDS011;13778;48.236;9.894;2022-08-03T11:20:00;1.40;;;1.30;;
25988;SDS011;13778;48.236;9.894;2022-08-03T11:22:52;1.23;;;0.98;;
25988;SDS011;13778;48.236;9.894;2022-08-03T11:29:09;1.42;;;1.33;;
25988;SDS011;13778;48.236;9.894;2022-08-03T11:32:04;2.10;;;1.25;;
25988;SDS011;13778;48.236;9.894;2022-08-03T11:35:08;0.83;;;0.83;;
25988;SDS011;13778;48.236;9.894;2022-08-03T11:38:06;1.40;;;1.30;;
25988;SDS011;13778;48.236;9.894;2022-08-03T11:40:57;2.30;;;1.10;;
25988;SDS011;13778;48.236;9.894;2022-08-03T11:43:50;3.72;;;1.20;;
25988;SDS011;13778;48.236;9.894;2022-08-03T11:46:41;3.65;;;1.42;;
25988;SDS011;13778;48.236;9.894;2022-08-03T11:49:32;1.88;;;1.25;;
25988;SDS011;13778;48.236;9.894;2022-08-03T11:52:24;1.47;;;1.27;;
25988;SDS011;13778;48.236;9.894;2022-08-03T11:55:15;1.25;;;1.15;;
25988;SDS011;13778;48.236;9.894;2022-08-03T11:58:06;1.50;;;1.30;;
25988;SDS011;13778;48.236;9.894;2022-08-03T12:01:02;2.50;;;1.37;;
25988;SDS011;13778;48.236;9.894;2022-08-03T12:03:52;3.15;;;1.45;;
25988;SDS011;13778;48.236;9.894;2022-08-03T12:06:56;1.20;;;1.10;;
25988;SDS011;13778;48.236;9.894;2022-08-03T12:12:55;1.33;;;1.27;;
25988;SDS011;13778;48.236;9.894;2022-08-03T12:15:49;1.92;;;1.40;;
25988;SDS011;13778;48.236;9.894;2022-08-03T12:18:39;1.45;;;1.13;;
25988;SDS011;13778;48.236;9.894;2022-08-03T12:21:30;3.17;;;1.43;;
25988;SDS011;13778;48.236;9.894;2022-08-03T12:24:20;1.77;;;1.27;;
25988;SDS011;13778;48.236;9.894;2022-08-03T12:27:11;1.42;;;1.33;;
25988;SDS011;13778;48.236;9.894;2022-08-03T12:30:03;2.50;;;1.20;;
25988;SDS011;13778;48.236;9.894;2022-08-03T12:32:53;2.38;;;1.55;;
25988;SDS011;13778;48.236;9.894;2022-08-03T12:35:44;2.80;;;1.38;;
25988;SDS011;13778;48.236;9.894;2022-08-03T12:38:35;1.23;;;1.13;;
25988;SDS011;13778;48.236;9.894;2022-08-03T12:41:26;1.60;;;1.40;;
25988;SDS011;13778;48.236;9.894;2022-08-03T12:44:17;3.10;;;1.50;;
25988;SDS011;13778;48.236;9.894;2022-08-03T12:47:09;3.27;;;1.43;;
25988;SDS011;13778;48.236;9.894;2022-08-03T12:50:00;1.58;;;1.30;;
25988;SDS011;13778;48.236;9.894;2022-08-03T12:52:51;1.52;;;1.42;;
25988;SDS011;13778;48.236;9.894;2022-08-03T12:55:41;1.50;;;1.40;;
25988;SDS011;13778;48.236;9.894;2022-08-03T12:58:33;2.67;;;1.55;;
25988;SDS011;13778;48.236;9.894;2022-08-03T13:01:23;3.35;;;1.48;;
25988;SDS011;13778;48.236;9.894;2022-08-03T13:04:25;1.77;;;1.67;;
25988;SDS011;13778;48.236;9.894;2022-08-03T13:07:16;1.35;;;1.25;;
25988;SDS011;13778;48.236;9.894;2022-08-03T13:10:07;2.20;;;1.65;;
25988;SDS011;13778;48.236;9.894;2022-08-03T13:12:58;2.42;;;1.77;;
25988;SDS011;13778;48.236;9.894;2022-08-03T13:15:50;1.20;;;1.10;;
25988;SDS011;13778;48.236;9.894;2022-08-03T13:18:41;3.53;;;1.53;;
25988;SDS011;13778;48.236;9.894;2022-08-03T13:21:33;1.50;;;1.40;;
25988;SDS011;13778;48.236;9.894;2022-08-03T13:24:24;2.42;;;1.50;;
25988;SDS011;13778;48.236;9.894;2022-08-03T13:27:15;2.67;;;1.40;;
25988;SDS011;13778;48.236;9.894;2022-08-03T13:30:06;2.78;;;1.40;;
25988;SDS011;13778;48.236;9.894;2022-08-03T13:32:56;2.35;;;1.45;;
25988;SDS011;13778;48.236;9.894;2022-08-03T13:35:48;1.30;;;1.20;;
25988;SDS011;13778;48.236;9.894;2022-08-03T13:38:40;1.70;;;1.60;;
25988;SDS011;13778;48.236;9.894;2022-08-03T13:41:31;2.78;;;1.45;;
25988;SDS011;13778;48.236;9.894;2022-08-03T13:44:21;2.58;;;1.60;;
25988;SDS011;13778;48.236;9.894;2022-08-03T13:47:12;3.42;;;1.80;;
25988;SDS011;13778;48.236;9.894;2022-08-03T13:50:03;1.73;;;1.50;;
25988;SDS011;13778;48.236;9.894;2022-08-03T13:52:53;2.25;;;1.13;;
25988;SDS011;13778;48.236;9.894;2022-08-03T13:55:45;1.60;;;1.50;;
25988;SDS011;13778;48.236;9.894;2022-08-03T13:58:35;1.52;;;1.42;;
25988;SDS011;13778;48.236;9.894;2022-08-03T14:01:26;1.73;;;1.50;;
25988;SDS011;13778;48.236;9.894;2022-08-03T14:04:17;2.83;;;1.42;;
25988;SDS011;13778;48.236;9.894;2022-08-03T14:07:07;1.40;;;1.30;;
25988;SDS011;13778;48.236;9.894;2022-08-03T14:09:58;1.55;;;1.40;;
25988;SDS011;13778;48.236;9.894;2022-08-03T14:12:51;1.80;;;1.30;;
25988;SDS011;13778;48.236;9.894;2022-08-03T14:15:41;1.48;;;1.38;;
25988;SDS011;13778;48.236;9.894;2022-08-03T14:18:32;2.00;;;1.30;;
25988;SDS011;13778;48.236;9.894;2022-08-03T14:21:22;1.63;;;1.40;;
25988;SDS011;13778;48.236;9.894;2022-08-03T14:24:13;1.53;;;1.40;;
25988;SDS011;13778;48.236;9.894;2022-08-03T14:27:04;2.75;;;1.35;;
25988;SDS011;13778;48.236;9.894;2022-08-03T14:29:55;6.30;;;1.42;;
25988;SDS011;13778;48.236;9.894;2022-08-03T14:32:47;2.20;;;1.50;;
25988;SDS011;13778;48.236;9.894;2022-08-03T14:35:38;1.10;;;1.10;;
25988;SDS011;13778;48.236;9.894;2022-08-03T14:38:28;1.57;;;1.47;;
25988;SDS011;13778;48.236;9.894;2022-08-03T14:41:19;1.40;;;1.30;;
25988;SDS011;13778;48.236;9.894;2022-08-03T14:44:09;3.92;;;2.13;;
25988;SDS011;13778;48.236;9.894;2022-08-03T14:47:01;2.63;;;1.25;;
25988;SDS011;13778;48.236;9.894;2022-08-03T14:49:51;1.70;;;1.58;;
25988;SDS011;13778;48.236;9.894;2022-08-03T14:52:42;1.40;;;1.30;;
25988;SDS011;13778;48.236;9.894;2022-08-03T14:55:32;1.60;;;1.40;;
25988;SDS011;13778;48.236;9.894;2022-08-03T14:58:23;1.70;;;1.60;;
25988;SDS011;13778;48.236;9.894;2022-08-03T15:01:14;2.28;;;1.60;;
25988;SDS011;13778;48.236;9.894;2022-08-03T15:04:06;1.50;;;1.40;;
25988;SDS011;13778;48.236;9.894;2022-08-03T15:06:57;1.67;;;1.52;;
25988;SDS011;13778;48.236;9.894;2022-08-03T15:09:47;2.05;;;1.65;;
25988;SDS011;13778;48.236;9.894;2022-08-03T15:12:38;2.38;;;1.70;;
25988;SDS011;13778;48.236;9.894;2022-08-03T15:15:28;1.60;;;1.50;;
25988;SDS011;13778;48.236;9.894;2022-08-03T15:18:19;1.75;;;1.33;;
25988;SDS011;13778;48.236;9.894;2022-08-03T15:21:11;2.75;;;1.50;;
25988;SDS011;13778;48.236;9.894;2022-08-03T15:24:01;1.60;;;1.50;;
25988;SDS011;13778;48.236;9.894;2022-08-03T15:26:52;1.83;;;1.40;;
25988;SDS011;13778;48.236;9.894;2022-08-03T15:29:42;3.25;;;1.67;;
25988;SDS011;13778;48.236;9.894;2022-08-03T15:32:33;2.35;;;1.30;;
25988;SDS011;13778;48.236;9.894;2022-08-03T15:35:23;1.88;;;1.30;;
25988;SDS011;13778;48.236;9.894;2022-08-03T15:38:15;1.52;;;1.42;;
25988;SDS011;13778;48.236;9.894;2022-08-03T15:41:05;2.25;;;1.50;;
25988;SDS011;13778;48.236;9.894;2022-08-03T15:43:56;1.88;;;1.48;;
25988;SDS011;13778;48.236;9.894;2022-08-03T15:46:46;1.30;;;1.20;;
25988;SDS011;13778;48.236;9.894;2022-08-03T15:49:37;2.78;;;1.20;;
25988;SDS011;13778;48.236;9.894;2022-08-03T15:52:28;1.58;;;1.30;;
25988;SDS011;13778;48.236;9.894;2022-08-03T15:55:19;1.40;;;1.30;;
25988;SDS011;13778;48.236;9.894;2022-08-03T15:58:10;1.50;;;1.40;;
25988;SDS011;13778;48.236;9.894;2022-08-03T16:01:00;1.38;;;1.27;;
25988;SDS011;13778;48.236;9.894;2022-08-03T16:03:51;1.17;;;1.13;;
25988;SDS011;13778;48.236;9.894;2022-08-03T16:06:42;2.25;;;1.42;;
25988;SDS011;13778;48.236;9.894;2022-08-03T16:09:32;1.38;;;1.27;;
25988;SDS011;13778;48.236;9.894;2022-08-03T16:12:24;1.30;;;1.20;;
25988;SDS011;13778;48.236;9.894;2022-08-03T16:15:14;1.40;;;1.30;;
25988;SDS011;13778;48.236;9.894;2022-08-03T16:18:05;2.17;;;1.65;;
25988;SDS011;13778;48.236;9.894;2022-08-03T16:20:55;3.10;;;1.52;;
25988;SDS011;13778;48.236;9.894;2022-08-03T16:23:46;1.90;;;1.67;;
25988;SDS011;13778;48.236;9.894;2022-08-03T16:26:36;2.67;;;1.30;;
25988;SDS011;13778;48.236;9.894;2022-08-03T16:29:28;1.50;;;1.40;;
25988;SDS011;13778;48.236;9.894;2022-08-03T16:32:19;3.58;;;1.58;;
25988;SDS011;13778;48.236;9.894;2022-08-03T16:35:09;2.33;;;1.13;;
25988;SDS011;13778;48.236;9.894;2022-08-03T16:38:00;4.38;;;1.30;;
25988;SDS011;13778;48.236;9.894;2022-08-03T16:40:50;5.77;;;1.47;;
25988;SDS011;13778;48.236;9.894;2022-08-03T16:43:41;2.35;;;1.30;;
25988;SDS011;13778;48.236;9.894;2022-08-03T16:46:33;2.17;;;1.52;;
25988;SDS011;13778;48.236;9.894;2022-08-03T16:49:23;1.33;;;1.15;;
25988;SDS011;13778;48.236;9.894;2022-08-03T16:52:13;1.42;;;1.33;;
25988;SDS011;13778;48.236;9.894;2022-08-03T16:55:04;1.40;;;1.30;;
25988;SDS011;13778;48.236;9.894;2022-08-03T16:57:57;3.25;;;1.55;;
25988;SDS011;13778;48.236;9.894;2022-08-03T17:00:50;1.80;;;1.42;;
25988;SDS011;13778;48.236;9.894;2022-08-03T17:03:42;1.20;;;1.10;;
25988;SDS011;13778;48.236;9.894;2022-08-03T17:06:33;3.50;;;1.48;;
25988;SDS011;13778;48.236;9.894;2022-08-03T17:12:14;2.33;;;1.10;;
25988;SDS011;13778;48.236;9.894;2022-08-03T17:15:05;1.33;;;1.07;;
25988;SDS011;13778;48.236;9.894;2022-08-03T17:17:56;2.03;;;1.40;;
25988;SDS011;13778;48.236;9.894;2022-08-03T17:20:51;1.65;;;1.40;;
25988;SDS011;13778;48.236;9.894;2022-08-03T17:23:44;3.80;;;1.40;;
25988;SDS011;13778;48.236;9.894;2022-08-03T17:26:39;1.75;;;1.65;;
25988;SDS011;13778;48.236;9.894;2022-08-03T17:29:31;1.42;;;1.33;;
25988;SDS011;13778;48.236;9.894;2022-08-03T17:32:23;1.30;;;1.20;;
25988;SDS011;13778;48.236;9.894;2022-08-03T17:35:14;2.72;;;1.13;;
25988;SDS011;13778;48.236;9.894;2022-08-03T17:38:05;1.45;;;1.35;;
25988;SDS011;13778;48.236;9.894;2022-08-03T17:40:56;5.35;;;1.20;;
25988;SDS011;13778;48.236;9.894;2022-08-03T17:43:47;1.88;;;1.33;;
25988;SDS011;13778;48.236;9.894;2022-08-03T17:46:40;2.15;;;1.70;;
25988;SDS011;13778;48.236;9.894;2022-08-03T17:49:31;2.28;;;1.45;;
25988;SDS011;13778;48.236;9.894;2022-08-03T17:52:23;4.68;;;1.30;;
25988;SDS011;13778;48.236;9.894;2022-08-03T17:55:19;2.97;;;1.40;;